If you wish to contribute or participate in the discussions about articles you are invited to join SKYbrary as a registered user

 Actions

Sanandaj Airport

From SKYbrary Wiki

OICS
Airport
ICAO: OICS – IATA: SDG
Summary
Name Sanandaj Airport
Region Middle East
Territory Iran IR.gif
Location Sanandaj, Kurdistan Province
Serving Sanandaj
Elevation 1,378.306 m
4,522 ft1,378.306 m
Coordinates 35° 15' 5.97" N, 47° 0' 48.93" E
Runways
Designator Length Width Surface ROPS
1/19 2640 m8,661.417 ft
45 m147.638 ft
ASP /


METAR
Observation OICS 111000Z 00000KT 9999 FEW035CB SCT040 17/04 Q1017 A3003
Station Sanandaj
Date/Time 11 April 2019 10:00:00
Wind direction
Wind speed 00 kts
Lowest cloud amount few clouds
Temperature 17°C
Dew point 4°C
Humidity 42%
QNH 1017 hPa
Weather condition n/a

Airport south of the city of Sanandaj, Iran.

Climatology

Warm Semi-arid climate (Köppen climate classification Bsh).

Maps

Terrain

Loading map...

Airport Layout

Loading map...


Accidents & Serious Incidents at or in vicinity of OICS

None on SKYbrary